Time;durP1;ratioP1;P1;durP2;ratioP2;P2;SDS_P1;SDS_P2;PMS_P1;PMS_P2;Temp;Humidity;BMP_temperature;BMP_pressure;BME280_temperature;BME280_humidity;BME280_pressure;Samples;Min_cycle;Max_cycle;Signal;HPM_P1;HPM_P2
2022/07/01 00:00:10;;;;;;;;;;;20.50;99.90;;;;;;4591516;19;20238;-39
2022/07/01 00:02:01;;;;;;;;;;;20.50;99.90;;;;;;4590761;19;20338;-36
2022/07/01 00:03:34;;;;;;;;;;;20.50;99.90;;;;;;4590854;19;19911;-34
2022/07/01 00:05:05;;;;;;;;;;;20.40;99.90;;;;;;4590361;19;19974;-35
2022/07/01 00:06:36;;;;;;;;;;;20.40;99.90;;;;;;4590733;19;19926;-33
2022/07/01 00:08:07;;;;;;;;;;;20.40;99.90;;;;;;4591135;19;19979;-39
2022/07/01 00:09:38;;;;;;;;;;;20.40;99.90;;;;;;4590858;19;19915;-39
2022/07/01 00:11:09;;;;;;;;;;;20.40;99.90;;;;;;4591018;19;19946;-36
2022/07/01 00:12:40;;;;;;;;;;;20.30;99.90;;;;;;4591552;19;19973;-35
2022/07/01 00:14:11;;;;;;;;;;;20.30;99.90;;;;;;4591296;19;19919;-38
2022/07/01 00:15:42;;;;;;;;;;;20.30;99.90;;;;;;4589700;19;20289;-35
2022/07/01 00:17:13;;;;;;;;;;;20.30;99.90;;;;;;4590827;19;19915;-34
2022/07/01 00:18:44;;;;;;;;;;;20.30;99.90;;;;;;4590606;19;19942;-38
2022/07/01 00:20:15;;;;;;;;;;;20.30;99.90;;;;;;4588420;19;20264;-35
2022/07/01 00:21:46;;;;;;;;;;;20.20;99.90;;;;;;4589504;19;19915;-34
2022/07/01 00:23:17;;;;;;;;;;;20.20;99.90;;;;;;4591314;19;20259;-38
2022/07/01 00:24:48;;;;;;;;;;;20.20;99.90;;;;;;4590254;19;19921;-34
2022/07/01 00:26:19;;;;;;;;;;;20.10;99.90;;;;;;4590547;19;19986;-37
2022/07/01 00:27:50;;;;;;;;;;;20.10;99.90;;;;;;4590601;19;19915;-39
2022/07/01 00:29:21;;;;;;;;;;;20.10;99.90;;;;;;4590482;19;20373;-37
2022/07/01 00:30:52;;;;;;;;;;;20.10;99.90;;;;;;4590972;19;19919;-35
2022/07/01 00:32:23;;;;;;;;;;;20.00;99.90;;;;;;4590136;19;19914;-35
2022/07/01 00:33:54;;;;;;;;;;;20.10;99.90;;;;;;4589819;19;19915;-40
2022/07/01 00:35:25;;;;;;;;;;;20.10;99.90;;;;;;4589448;19;19921;-36
2022/07/01 00:36:56;;;;;;;;;;;20.10;99.90;;;;;;4588712;19;19922;-34
2022/07/01 00:38:27;;;;;;;;;;;20.00;99.90;;;;;;4588061;19;19926;-37
2022/07/01 00:39:58;;;;;;;;;;;20.10;99.90;;;;;;4589100;19;20293;-33
2022/07/01 00:41:29;;;;;;;;;;;20.10;99.90;;;;;;4590751;19;19918;-41
2022/07/01 00:43:00;;;;;;;;;;;20.10;99.90;;;;;;4590605;19;20399;-41
2022/07/01 00:44:32;;;;;;;;;;;20.10;99.90;;;;;;4590311;19;19937;-34
2022/07/01 00:46:03;;;;;;;;;;;20.10;99.90;;;;;;4590009;19;19911;-39
2022/07/01 00:47:33;;;;;;;;;;;20.10;99.90;;;;;;4589597;19;19982;-43
2022/07/01 00:49:04;;;;;;;;;;;20.00;99.90;;;;;;4590398;19;19940;-41
2022/07/01 00:50:35;;;;;;;;;;;20.00;99.90;;;;;;4588714;19;19954;-37
2022/07/01 00:52:07;;;;;;;;;;;20.10;99.90;;;;;;4589010;19;20352;-40
2022/07/01 00:53:38;;;;;;;;;;;20.00;99.90;;;;;;4591256;19;20350;-40
2022/07/01 00:55:09;;;;;;;;;;;20.10;99.90;;;;;;4591039;19;19923;-40
2022/07/01 00:56:41;;;;;;;;;;;20.00;99.90;;;;;;4590430;19;19923;-42
2022/07/01 00:58:11;;;;;;;;;;;20.00;99.90;;;;;;4590162;19;19919;-38
2022/07/01 00:59:42;;;;;;;;;;;20.00;99.90;;;;;;4589694;19;20268;-39
2022/07/01 01:01:13;;;;;;;;;;;20.00;99.90;;;;;;4589483;19;19974;-37
2022/07/01 01:02:44;;;;;;;;;;;20.00;99.90;;;;;;4587505;19;19982;-35
2022/07/01 01:04:15;;;;;;;;;;;20.00;99.90;;;;;;4588969;19;19922;-35
2022/07/01 01:05:46;;;;;;;;;;;20.00;99.90;;;;;;4589436;19;19919;-38
2022/07/01 01:07:17;;;;;;;;;;;20.00;99.90;;;;;;4595724;19;19915;-33
2022/07/01 01:08:51;;;;;;;;;;;20.00;99.90;;;;;;4595392;19;19952;-38
2022/07/01 01:10:23;;;;;;;;;;;20.00;99.90;;;;;;4592871;19;19919;-39
2022/07/01 01:11:54;;;;;;;;;;;20.00;99.90;;;;;;4593443;19;19919;-38
2022/07/01 01:13:26;;;;;;;;;;;20.00;99.90;;;;;;4593508;19;19914;-36
2022/07/01 01:14:57;;;;;;;;;;;20.00;99.90;;;;;;4591911;19;19974;-36
2022/07/01 01:16:28;;;;;;;;;;;20.00;99.90;;;;;;4592553;19;19922;-34
2022/07/01 01:17:58;;;;;;;;;;;20.00;99.90;;;;;;4595575;19;19919;-33
2022/07/01 01:19:29;;;;;;;;;;;20.00;99.90;;;;;;4594968;19;19922;-40
2022/07/01 01:21:00;;;;;;;;;;;20.00;99.90;;;;;;4594891;19;19923;-39
2022/07/01 01:22:31;;;;;;;;;;;20.00;99.90;;;;;;4592950;19;20276;-38
2022/07/01 01:24:02;;;;;;;;;;;20.00;99.90;;;;;;4594074;19;20392;-35
2022/07/01 01:25:33;;;;;;;;;;;20.00;99.90;;;;;;4593806;19;19922;-35
2022/07/01 01:27:04;;;;;;;;;;;19.90;99.90;;;;;;4593594;19;19992;-38
2022/07/01 01:28:35;;;;;;;;;;;20.00;99.90;;;;;;4592759;19;20264;-38
2022/07/01 01:30:07;;;;;;;;;;;19.90;99.90;;;;;;4592355;19;20329;-40
2022/07/01 01:31:39;;;;;;;;;;;20.00;99.90;;;;;;4592649;19;20241;-38
2022/07/01 01:33:11;;;;;;;;;;;20.00;99.90;;;;;;4593281;19;19919;-39
2022/07/01 01:34:42;;;;;;;;;;;19.90;99.90;;;;;;4593842;19;19945;-36
2022/07/01 01:36:13;;;;;;;;;;;20.00;99.90;;;;;;4594831;19;19922;-39
2022/07/01 01:37:44;;;;;;;;;;;20.10;99.90;;;;;;4594472;19;19914;-37
2022/07/01 01:39:18;;;;;;;;;;;20.30;99.90;;;;;;4592906;19;19949;-35
2022/07/01 01:40:49;;;;;;;;;;;20.40;99.90;;;;;;4594173;19;20373;-38
2022/07/01 01:42:21;;;;;;;;;;;20.60;99.90;;;;;;4593442;19;19915;-39
2022/07/01 01:43:51;;;;;;;;;;;20.70;99.90;;;;;;4595018;19;19919;-34
2022/07/01 01:45:23;;;;;;;;;;;20.90;99.90;;;;;;4592961;19;20331;-34
2022/07/01 01:46:53;;;;;;;;;;;21.00;99.90;;;;;;4594231;19;19919;-39
2022/07/01 01:48:24;;;;;;;;;;;21.10;99.90;;;;;;4594856;19;19919;-36
2022/07/01 01:49:55;;;;;;;;;;;21.20;99.90;;;;;;4594199;19;19921;-36
2022/07/01 01:51:27;;;;;;;;;;;21.30;99.90;;;;;;4592952;19;19919;-35
2022/07/01 01:52:57;;;;;;;;;;;21.40;99.90;;;;;;4593648;19;19921;-38
2022/07/01 01:54:28;;;;;;;;;;;21.50;99.90;;;;;;4594106;19;19915;-39
2022/07/01 01:55:59;;;;;;;;;;;21.60;99.90;;;;;;4593752;19;19915;-43
2022/07/01 01:57:30;;;;;;;;;;;21.60;99.90;;;;;;4593015;19;19926;-39
2022/07/01 01:59:01;;;;;;;;;;;21.70;99.90;;;;;;4592982;19;19930;-37
2022/07/01 02:00:32;;;;;;;;;;;21.70;99.90;;;;;;4593978;19;19947;-37
2022/07/01 02:02:03;;;;;;;;;;;21.80;99.90;;;;;;4592836;19;20248;-35
2022/07/01 02:03:34;;;;;;;;;;;21.80;99.90;;;;;;4593751;19;19935;-36
2022/07/01 02:05:06;;;;;;;;;;;21.90;99.90;;;;;;4593597;19;19911;-34
2022/07/01 02:06:37;;;;;;;;;;;21.90;99.90;;;;;;4593852;19;19935;-40
2022/07/01 02:08:08;;;;;;;;;;;22.00;99.90;;;;;;4593785;19;19911;-35
2022/07/01 02:09:39;;;;;;;;;;;22.00;99.90;;;;;;4593993;19;20245;-38
2022/07/01 02:11:10;;;;;;;;;;;22.10;99.90;;;;;;4594176;19;19915;-41
2022/07/01 02:12:41;;;;;;;;;;;22.10;99.90;;;;;;4590930;19;19951;-35
2022/07/01 02:14:12;;;;;;;;;;;22.10;99.90;;;;;;4592441;19;19925;-34
2022/07/01 02:15:43;;;;;;;;;;;22.10;99.90;;;;;;4593620;19;19915;-34
2022/07/01 02:17:14;;;;;;;;;;;22.20;99.90;;;;;;4592601;19;19951;-41
2022/07/01 02:18:45;;;;;;;;;;;22.20;99.90;;;;;;4592312;19;20356;-36
2022/07/01 02:20:16;;;;;;;;;;;22.20;99.90;;;;;;4593682;19;19926;-38
2022/07/01 02:21:47;;;;;;;;;;;22.30;99.90;;;;;;4592908;19;20328;-39
2022/07/01 02:23:18;;;;;;;;;;;22.30;99.90;;;;;;4593550;19;19911;-36
2022/07/01 02:24:49;;;;;;;;;;;22.30;99.90;;;;;;4593321;19;19919;-38
2022/07/01 02:26:19;;;;;;;;;;;22.30;99.90;;;;;;4593888;19;19926;-39
2022/07/01 02:27:51;;;;;;;;;;;22.30;99.90;;;;;;4594087;19;20247;-36
2022/07/01 02:29:22;;;;;;;;;;;22.40;99.90;;;;;;4592963;19;19918;-41
2022/07/01 02:30:52;;;;;;;;;;;22.40;99.90;;;;;;4593346;19;19934;-36
2022/07/01 02:32:23;;;;;;;;;;;22.40;99.90;;;;;;4593619;19;19922;-37
2022/07/01 02:33:55;;;;;;;;;;;22.40;99.90;;;;;;4593346;19;20499;-40
2022/07/01 02:35:25;;;;;;;;;;;22.50;99.90;;;;;;4592885;19;19915;-35
2022/07/01 02:36:56;;;;;;;;;;;22.40;99.90;;;;;;4593324;19;19944;-33
2022/07/01 02:38:27;;;;;;;;;;;22.40;99.90;;;;;;4593016;19;20233;-39
2022/07/01 02:39:58;;;;;;;;;;;22.40;99.90;;;;;;4591456;19;19978;-33
2022/07/01 02:41:29;;;;;;;;;;;22.40;99.90;;;;;;4592910;19;19918;-36
2022/07/01 02:43:00;;;;;;;;;;;22.40;99.90;;;;;;4593178;19;19933;-36
2022/07/01 02:44:31;;;;;;;;;;;22.40;99.90;;;;;;4590699;19;20028;-39
2022/07/01 02:46:02;;;;;;;;;;;22.40;99.90;;;;;;4591980;19;20359;-34
2022/07/01 02:47:39;;;;;;;;;;;22.50;99.90;;;;;;4592858;19;19922;-36
2022/07/01 02:49:10;;;;;;;;;;;22.50;99.90;;;;;;4592527;19;20349;-33
2022/07/01 02:50:41;;;;;;;;;;;22.50;99.90;;;;;;4593046;19;19926;-34
2022/07/01 02:52:12;;;;;;;;;;;22.50;99.90;;;;;;4592619;19;20303;-40
2022/07/01 02:53:43;;;;;;;;;;;22.50;99.90;;;;;;4592640;19;19923;-33
2022/07/01 02:55:14;;;;;;;;;;;22.50;99.90;;;;;;4593370;19;19922;-33
2022/07/01 02:56:45;;;;;;;;;;;22.60;99.90;;;;;;4592875;19;20321;-40
2022/07/01 02:58:16;;;;;;;;;;;22.60;99.90;;;;;;4592499;19;19941;-33
2022/07/01 02:59:48;;;;;;;;;;;22.60;99.90;;;;;;4592608;19;19922;-37
2022/07/01 03:01:19;;;;;;;;;;;22.60;99.90;;;;;;4593012;19;19917;-33
2022/07/01 03:02:50;;;;;;;;;;;22.60;99.90;;;;;;4591885;19;19937;-34
2022/07/01 03:04:21;;;;;;;;;;;22.60;99.90;;;;;;4592588;19;19911;-35
2022/07/01 03:05:52;;;;;;;;;;;22.60;99.90;;;;;;4592903;19;20367;-34
2022/07/01 03:07:23;;;;;;;;;;;22.60;99.90;;;;;;4593010;19;19930;-43
2022/07/01 03:08:55;;;;;;;;;;;22.60;99.90;;;;;;4592379;19;19922;-34
2022/07/01 03:10:26;;;;;;;;;;;22.60;99.90;;;;;;4592268;19;19982;-38
2022/07/01 03:11:57;;;;;;;;;;;22.60;99.90;;;;;;4592251;19;20317;-34
2022/07/01 03:13:28;;;;;;;;;;;22.60;99.90;;;;;;4592480;19;20261;-35
2022/07/01 03:15:00;;;;;;;;;;;22.60;99.90;;;;;;4592044;19;20313;-42
2022/07/01 03:16:31;;;;;;;;;;;22.70;99.90;;;;;;4592656;19;19923;-37
2022/07/01 03:18:02;;;;;;;;;;;22.70;99.90;;;;;;4592809;19;19926;-35
2022/07/01 03:19:33;;;;;;;;;;;22.70;99.90;;;;;;4592787;19;19919;-36
2022/07/01 03:21:03;;;;;;;;;;;22.60;99.90;;;;;;4592164;19;19911;-39
2022/07/01 03:22:35;;;;;;;;;;;22.60;99.90;;;;;;4591509;19;19925;-34
2022/07/01 03:24:06;;;;;;;;;;;22.60;99.90;;;;;;4592340;19;19915;-35
2022/07/01 03:25:37;;;;;;;;;;;22.60;99.90;;;;;;4591923;19;19923;-37
2022/07/01 03:27:08;;;;;;;;;;;22.70;99.90;;;;;;4591953;19;19970;-42
2022/07/01 03:28:40;;;;;;;;;;;22.60;99.90;;;;;;4591737;19;19930;-40
2022/07/01 03:30:11;;;;;;;;;;;22.70;99.90;;;;;;4591840;19;20337;-35
2022/07/01 03:31:42;;;;;;;;;;;22.70;99.90;;;;;;4590602;19;19994;-34
2022/07/01 03:33:13;;;;;;;;;;;22.70;99.90;;;;;;4591420;19;19915;-42
2022/07/01 03:34:44;;;;;;;;;;;22.70;99.90;;;;;;4592814;19;19922;-38
2022/07/01 03:36:15;;;;;;;;;;;22.70;99.90;;;;;;4592036;19;19911;-37
2022/07/01 03:37:47;;;;;;;;;;;22.70;99.90;;;;;;4591845;19;19911;-34
2022/07/01 03:39:17;;;;;;;;;;;22.70;99.90;;;;;;4591005;19;19922;-35
2022/07/01 03:40:49;;;;;;;;;;;22.70;99.90;;;;;;4591955;19;19971;-40
2022/07/01 03:42:20;;;;;;;;;;;22.70;99.90;;;;;;4590876;19;19957;-38
2022/07/01 03:43:51;;;;;;;;;;;22.80;99.90;;;;;;4591586;19;19922;-38
2022/07/01 03:45:21;;;;;;;;;;;22.70;99.90;;;;;;4590514;19;20333;-37
2022/07/01 03:46:53;;;;;;;;;;;22.70;99.90;;;;;;4591311;19;20333;-35
2022/07/01 03:48:25;;;;;;;;;;;22.70;99.90;;;;;;4591418;19;19918;-37
2022/07/01 03:49:56;;;;;;;;;;;22.70;99.90;;;;;;4591832;19;19922;-34
2022/07/01 03:51:27;;;;;;;;;;;22.70;99.90;;;;;;4593384;19;19982;-34
2022/07/01 03:54:48;;;;;;;;;;;22.70;99.90;;;;;;4591386;19;20325;-35
2022/07/01 03:56:19;;;;;;;;;;;22.70;99.90;;;;;;4591696;19;19934;-34
2022/07/01 03:57:50;;;;;;;;;;;22.70;99.90;;;;;;4591542;19;19911;-33
2022/07/01 03:59:21;;;;;;;;;;;22.70;99.90;;;;;;4592031;19;19975;-39
2022/07/01 04:00:52;;;;;;;;;;;22.80;99.90;;;;;;4591296;19;20344;-34
2022/07/01 04:02:23;;;;;;;;;;;22.10;99.90;;;;;;4593017;19;19924;-32
2022/07/01 04:03:53;;;;;;;;;;;20.20;99.90;;;;;;4593268;19;19923;-36
2022/07/01 04:05:24;;;;;;;;;;;19.60;99.90;;;;;;4591916;19;19918;-34
2022/07/01 04:06:57;;;;;;;;;;;19.40;99.90;;;;;;4591340;19;19922;-41
2022/07/01 04:08:27;;;;;;;;;;;19.40;99.90;;;;;;4592171;19;19919;-34
2022/07/01 04:09:58;;;;;;;;;;;19.40;99.90;;;;;;4590807;19;20349;-38
2022/07/01 04:11:30;;;;;;;;;;;19.40;99.90;;;;;;4590177;19;19974;-36
2022/07/01 04:13:01;;;;;;;;;;;19.40;99.90;;;;;;4589315;19;19930;-35
2022/07/01 04:14:32;;;;;;;;;;;19.50;99.90;;;;;;4589330;19;19939;-41
2022/07/01 04:16:03;;;;;;;;;;;19.50;99.90;;;;;;4592219;19;19914;-38
2022/07/01 04:17:35;;;;;;;;;;;19.50;99.90;;;;;;4591244;19;19919;-33
2022/07/01 04:19:06;;;;;;;;;;;19.50;99.90;;;;;;4591057;19;20349;-42
2022/07/01 04:20:36;;;;;;;;;;;19.60;99.90;;;;;;4589821;19;19918;-39
2022/07/01 04:23:58;;;;;;;;;;;19.60;99.90;;;;;;4590201;19;19915;-34
2022/07/01 04:25:29;;;;;;;;;;;19.60;99.90;;;;;;4590237;19;19922;-34
2022/07/01 04:27:01;;;;;;;;;;;19.60;99.90;;;;;;4590082;19;20321;-35
2022/07/01 04:28:32;;;;;;;;;;;19.70;99.90;;;;;;4589901;19;19919;-39
2022/07/01 04:30:03;;;;;;;;;;;19.70;99.90;;;;;;4588936;19;19926;-36
2022/07/01 04:31:37;;;;;;;;;;;19.70;99.90;;;;;;4589413;19;19911;-36
2022/07/01 04:33:08;;;;;;;;;;;19.70;99.90;;;;;;4592208;19;19914;-34
2022/07/01 04:34:39;;;;;;;;;;;19.80;99.90;;;;;;4588194;19;19926;-34
2022/07/01 04:36:10;;;;;;;;;;;19.80;99.90;;;;;;4589377;19;19931;-35
2022/07/01 04:37:41;;;;;;;;;;;19.80;99.90;;;;;;4590094;19;19922;-40
2022/07/01 04:39:12;;;;;;;;;;;19.80;99.90;;;;;;4589361;19;19983;-34
2022/07/01 04:41:58;;;;;;;;;;;19.80;99.90;;;;;;4590336;19;19919;-41
2022/07/01 04:42:34;;;;;;;;;;;19.90;99.90;;;;;;4593517;19;19914;-34
2022/07/01 04:44:05;;;;;;;;;;;19.90;99.90;;;;;;4594252;19;19915;-37
2022/07/01 04:45:36;;;;;;;;;;;19.90;99.90;;;;;;4592871;19;19942;-36
2022/07/01 04:47:06;;;;;;;;;;;19.90;99.90;;;;;;4595639;19;19919;-37
2022/07/01 04:48:38;;;;;;;;;;;19.90;99.90;;;;;;4595324;19;19982;-37
2022/07/01 04:50:09;;;;;;;;;;;20.00;99.90;;;;;;4594882;19;19918;-37
2022/07/01 04:51:39;;;;;;;;;;;20.00;99.90;;;;;;4595261;19;20345;-36
2022/07/01 04:53:12;;;;;;;;;;;20.00;99.90;;;;;;4594185;19;19926;-33
2022/07/01 04:54:43;;;;;;;;;;;20.00;99.90;;;;;;4594124;19;19974;-36
2022/07/01 04:56:14;;;;;;;;;;;20.00;99.90;;;;;;4593519;19;19929;-33
2022/07/01 04:57:45;;;;;;;;;;;20.10;99.90;;;;;;4593878;19;19922;-33
2022/07/01 04:59:16;;;;;;;;;;;20.10;99.90;;;;;;4592959;19;19919;-35
2022/07/01 05:00:48;;;;;;;;;;;20.10;99.90;;;;;;4595744;19;19911;-38
2022/07/01 05:02:19;;;;;;;;;;;20.20;99.90;;;;;;4594006;19;20302;-33
2022/07/01 05:03:50;;;;;;;;;;;20.20;99.90;;;;;;4595473;19;19919;-34
2022/07/01 05:05:21;;;;;;;;;;;20.10;99.90;;;;;;4593319;19;19942;-34
2022/07/01 05:06:52;;;;;;;;;;;20.20;99.90;;;;;;4593819;19;19919;-38
2022/07/01 05:08:23;;;;;;;;;;;20.20;99.90;;;;;;4593920;19;19919;-34
2022/07/01 05:09:54;;;;;;;;;;;20.20;99.90;;;;;;4593589;19;19949;-36
2022/07/01 05:11:25;;;;;;;;;;;20.30;99.90;;;;;;4592842;19;19982;-38
2022/07/01 05:12:56;;;;;;;;;;;20.30;99.90;;;;;;4591997;19;19967;-39
2022/07/01 05:14:27;;;;;;;;;;;20.30;99.90;;;;;;4592606;19;20245;-34
2022/07/01 05:15:58;;;;;;;;;;;20.30;99.90;;;;;;4595217;19;19923;-36
2022/07/01 05:23:08;;;;;;;;;;;20.40;99.90;;;;;;4590063;19;19914;-38
2022/07/01 05:24:40;;;;;;;;;;;20.40;99.90;;;;;;4590515;19;19927;-35
2022/07/01 05:26:15;;;;;;;;;;;20.40;99.90;;;;;;4592413;19;20256;-36
2022/07/01 05:27:46;;;;;;;;;;;20.50;99.90;;;;;;4592525;19;19963;-34
2022/07/01 05:29:17;;;;;;;;;;;20.50;99.90;;;;;;4592299;19;19926;-37
2022/07/01 05:30:48;;;;;;;;;;;20.50;99.90;;;;;;4591735;19;19970;-34
2022/07/01 05:32:19;;;;;;;;;;;20.50;99.90;;;;;;4591283;19;19940;-33
2022/07/01 05:33:50;;;;;;;;;;;20.60;99.90;;;;;;4591041;19;19955;-34
2022/07/01 05:35:21;;;;;;;;;;;20.50;99.90;;;;;;4591451;19;19936;-36
2022/07/01 05:36:52;;;;;;;;;;;20.50;99.90;;;;;;4589823;19;19915;-37
2022/07/01 05:38:23;;;;;;;;;;;20.60;99.90;;;;;;4589580;19;20285;-39
2022/07/01 05:39:54;;;;;;;;;;;20.60;99.90;;;;;;4590635;19;19922;-37
2022/07/01 05:41:25;;;;;;;;;;;20.60;99.90;;;;;;4592770;19;19926;-35
2022/07/01 05:42:56;;;;;;;;;;;20.60;99.90;;;;;;4590306;19;19923;-35
2022/07/01 05:44:27;;;;;;;;;;;20.60;99.90;;;;;;4591493;19;19919;-39
2022/07/01 05:45:58;;;;;;;;;;;20.60;99.90;;;;;;4591094;19;19925;-37
2022/07/01 05:47:29;;;;;;;;;;;20.60;99.90;;;;;;4590084;19;19961;-33
2022/07/01 05:49:00;;;;;;;;;;;20.60;99.90;;;;;;4589898;19;19930;-36
2022/07/01 05:50:31;;;;;;;;;;;20.70;99.90;;;;;;4592026;19;19918;-33
2022/07/01 05:52:02;;;;;;;;;;;20.60;99.90;;;;;;4590826;19;19930;-37
2022/07/01 05:53:33;;;;;;;;;;;20.70;99.90;;;;;;4589682;19;19946;-37
2022/07/01 05:55:04;;;;;;;;;;;20.60;99.90;;;;;;4591086;19;19978;-35
2022/07/01 05:56:35;;;;;;;;;;;20.70;99.90;;;;;;4592464;19;19922;-35
2022/07/01 05:58:09;;;;;;;;;;;20.70;99.90;;;;;;4592843;19;19915;-34
2022/07/01 05:59:40;;;;;;;;;;;20.60;99.90;;;;;;4592442;19;19911;-38
2022/07/01 06:01:11;;;;;;;;;;;20.70;99.90;;;;;;4591938;19;19948;-36
2022/07/01 06:02:42;;;;;;;;;;;20.70;99.90;;;;;;4590272;19;19918;-35
2022/07/01 06:04:13;;;;;;;;;;;20.70;99.90;;;;;;4594614;19;19911;-35
2022/07/01 06:05:44;;;;;;;;;;;20.70;99.90;;;;;;4593991;19;19919;-39
2022/07/01 06:07:15;;;;;;;;;;;20.70;99.90;;;;;;4593637;19;20063;-40
2022/07/01 06:08:46;;;;;;;;;;;20.70;99.90;;;;;;4593575;19;19999;-38
2022/07/01 06:10:17;;;;;;;;;;;20.80;99.90;;;;;;4592866;19;19915;-36
2022/07/01 06:11:48;;;;;;;;;;;20.80;99.90;;;;;;4592651;19;19918;-44
2022/07/01 06:13:19;;;;;;;;;;;20.80;99.90;;;;;;4591999;19;19919;-35
2022/07/01 06:14:50;;;;;;;;;;;20.80;99.90;;;;;;4592139;19;20326;-35
2022/07/01 06:16:21;;;;;;;;;;;20.80;99.90;;;;;;4591285;19;19936;-38
2022/07/01 06:17:53;;;;;;;;;;;20.80;99.90;;;;;;4590193;19;20296;-33
2022/07/01 06:19:24;;;;;;;;;;;20.90;99.90;;;;;;4593297;19;19941;-36
2022/07/01 06:20:55;;;;;;;;;;;20.80;99.90;;;;;;4593620;19;19919;-36
2022/07/01 06:22:26;;;;;;;;;;;20.90;99.90;;;;;;4591926;19;19949;-34
2022/07/01 06:23:56;;;;;;;;;;;20.90;99.90;;;;;;4592730;19;19922;-38
2022/07/01 06:25:28;;;;;;;;;;;20.90;99.90;;;;;;4592569;19;19922;-37
2022/07/01 06:26:59;;;;;;;;;;;21.00;99.90;;;;;;4591859;19;19919;-34
2022/07/01 06:28:31;;;;;;;;;;;20.90;99.90;;;;;;4591464;19;20263;-37
2022/07/01 06:30:02;;;;;;;;;;;21.00;99.90;;;;;;4591444;19;19951;-40
2022/07/01 06:31:33;;;;;;;;;;;21.00;99.90;;;;;;4591516;19;19926;-37
2022/07/01 06:33:04;;;;;;;;;;;21.00;99.90;;;;;;4593706;19;19945;-35
2022/07/01 06:34:35;;;;;;;;;;;21.00;99.90;;;;;;4593400;19;19911;-38
2022/07/01 06:36:06;;;;;;;;;;;21.10;99.90;;;;;;4593437;19;19918;-41
2022/07/01 06:37:37;;;;;;;;;;;21.10;99.90;;;;;;4593018;19;19974;-33
2022/07/01 06:39:08;;;;;;;;;;;21.10;99.90;;;;;;4590876;19;19925;-35
2022/07/01 06:40:39;;;;;;;;;;;21.20;99.90;;;;;;4591913;19;19946;-32
2022/07/01 06:42:10;;;;;;;;;;;21.20;99.90;;;;;;4590018;19;19948;-33
2022/07/01 06:43:41;;;;;;;;;;;21.20;99.90;;;;;;4590817;19;19923;-33
2022/07/01 06:45:12;;;;;;;;;;;21.30;99.90;;;;;;4590883;19;19922;-35
2022/07/01 06:46:43;;;;;;;;;;;21.30;99.90;;;;;;4593311;19;19930;-36
2022/07/01 06:48:14;;;;;;;;;;;21.40;99.90;;;;;;4592475;19;19922;-31
2022/07/01 06:49:45;;;;;;;;;;;21.40;99.90;;;;;;4591752;19;20311;-34
2022/07/01 06:51:16;;;;;;;;;;;21.40;99.90;;;;;;4590534;19;19926;-36
2022/07/01 06:52:47;;;;;;;;;;;21.40;99.90;;;;;;4590899;19;19919;-34
2022/07/01 06:54:18;;;;;;;;;;;21.40;99.90;;;;;;4591433;19;19979;-33
2022/07/01 06:55:49;;;;;;;;;;;21.50;99.90;;;;;;4590914;19;19925;-38
2022/07/01 06:57:20;;;;;;;;;;;21.50;99.90;;;;;;4593212;19;19971;-37
2022/07/01 06:58:53;;;;;;;;;;;21.50;99.90;;;;;;4593096;19;19936;-36
2022/07/01 07:00:24;;;;;;;;;;;21.50;99.90;;;;;;4591902;19;19914;-35
2022/07/01 07:01:56;;;;;;;;;;;21.60;99.90;;;;;;4591182;19;20332;-37
2022/07/01 07:03:26;;;;;;;;;;;21.60;99.90;;;;;;4591153;19;19918;-40
2022/07/01 07:04:58;;;;;;;;;;;21.60;99.90;;;;;;4591133;19;19945;-39
2022/07/01 07:06:29;;;;;;;;;;;21.70;99.90;;;;;;4591105;19;19924;-38
2022/07/01 07:08:00;;;;;;;;;;;21.70;99.90;;;;;;4590543;19;19982;-40
2022/07/01 07:09:31;;;;;;;;;;;21.70;99.90;;;;;;4590398;19;19923;-40
2022/07/01 07:11:02;;;;;;;;;;;21.70;99.90;;;;;;4593752;19;19914;-38
2022/07/01 07:12:33;;;;;;;;;;;21.70;99.90;;;;;;4591862;19;19919;-39
2022/07/01 07:14:05;;;;;;;;;;;21.70;99.90;;;;;;4591872;19;19919;-35
2022/07/01 07:15:35;;;;;;;;;;;21.70;99.90;;;;;;4591895;19;20229;-34
2022/07/01 07:17:06;;;;;;;;;;;21.70;99.90;;;;;;4592469;19;19922;-35
2022/07/01 07:18:37;;;;;;;;;;;21.80;99.90;;;;;;4591915;19;20400;-39
2022/07/01 07:20:08;;;;;;;;;;;21.80;99.90;;;;;;4592228;19;19934;-38
2022/07/01 07:21:39;;;;;;;;;;;21.80;99.90;;;;;;4592597;19;19919;-40
2022/07/01 07:23:10;;;;;;;;;;;21.80;99.90;;;;;;4592101;19;19925;-40
2022/07/01 07:24:41;;;;;;;;;;;21.80;99.90;;;;;;4591914;19;20296;-33
2022/07/01 07:26:13;;;;;;;;;;;21.80;99.90;;;;;;4592025;19;19993;-34
2022/07/01 07:27:46;;;;;;;;;;;21.70;99.90;;;;;;4591826;19;19983;-36
2022/07/01 07:29:18;;;;;;;;;;;21.70;99.90;;;;;;4591737;19;19919;-38
2022/07/01 07:30:48;;;;;;;;;;;21.80;99.90;;;;;;4591677;19;19970;-36
2022/07/01 07:32:20;;;;;;;;;;;21.80;99.90;;;;;;4591685;19;19923;-32
2022/07/01 07:33:50;;;;;;;;;;;21.80;99.90;;;;;;4592512;19;19931;-36
2022/07/01 07:35:22;;;;;;;;;;;21.80;99.90;;;;;;4592332;19;19915;-36
2022/07/01 07:36:52;;;;;;;;;;;21.80;99.90;;;;;;4590299;19;19961;-35
2022/07/01 07:38:24;;;;;;;;;;;21.80;99.90;;;;;;4591114;19;19926;-41
2022/07/01 07:39:55;;;;;;;;;;;21.80;99.90;;;;;;4590380;19;19949;-37
2022/07/01 07:41:29;;;;;;;;;;;21.90;99.90;;;;;;4588886;19;20200;-38
2022/07/01 07:43:00;;;;;;;;;;;21.90;99.90;;;;;;4590692;19;19947;-37
2022/07/01 07:44:31;;;;;;;;;;;21.90;99.90;;;;;;4592335;19;20258;-39
2022/07/01 07:46:03;;;;;;;;;;;21.90;99.90;;;;;;4591043;19;19914;-38
2022/07/01 07:47:34;;;;;;;;;;;22.00;99.90;;;;;;4591662;19;19921;-34
2022/07/01 07:49:05;;;;;;;;;;;22.00;99.90;;;;;;4591384;19;19915;-36
2022/07/01 07:50:38;;;;;;;;;;;22.00;99.90;;;;;;4592370;19;19910;-41
2022/07/01 07:52:11;;;;;;;;;;;22.00;99.90;;;;;;4590828;19;19943;-35
2022/07/01 07:53:42;;;;;;;;;;;22.00;99.90;;;;;;4590988;19;20300;-43
2022/07/01 07:55:13;;;;;;;;;;;22.10;99.90;;;;;;4591651;19;19915;-39
2022/07/01 07:56:44;;;;;;;;;;;22.10;99.90;;;;;;4591680;19;19919;-34
2022/07/01 07:58:15;;;;;;;;;;;22.10;99.90;;;;;;4590900;19;19915;-38
2022/07/01 07:59:46;;;;;;;;;;;22.10;99.90;;;;;;4591109;19;20377;-34
2022/07/01 08:01:17;;;;;;;;;;;22.20;99.90;;;;;;4591017;19;19918;-38
2022/07/01 08:02:48;;;;;;;;;;;22.20;99.90;;;;;;4590394;19;19970;-36
2022/07/01 08:04:19;;;;;;;;;;;22.20;99.90;;;;;;4589406;19;19922;-38
2022/07/01 08:05:50;;;;;;;;;;;22.20;99.90;;;;;;4590764;19;19919;-36
2022/07/01 08:07:21;;;;;;;;;;;22.20;99.90;;;;;;4591000;19;19919;-34
2022/07/01 08:08:52;;;;;;;;;;;22.30;99.90;;;;;;4590839;19;19922;-40
2022/07/01 08:10:23;;;;;;;;;;;22.30;99.90;;;;;;4591066;19;19922;-34
2022/07/01 08:11:54;;;;;;;;;;;22.30;99.90;;;;;;4591151;19;19963;-36
2022/07/01 08:13:25;;;;;;;;;;;22.40;99.90;;;;;;4591290;19;19934;-38
2022/07/01 08:14:56;;;;;;;;;;;22.40;99.90;;;;;;4590601;19;20348;-35
2022/07/01 08:16:27;;;;;;;;;;;22.40;99.90;;;;;;4589296;19;19911;-40
2022/07/01 08:17:58;;;;;;;;;;;22.50;99.90;;;;;;4590957;19;19911;-37
2022/07/01 08:19:29;;;;;;;;;;;22.50;99.90;;;;;;4589824;19;20230;-35
2022/07/01 08:21:02;;;;;;;;;;;22.40;99.90;;;;;;4589901;19;19930;-34
2022/07/01 08:22:33;;;;;;;;;;;22.50;99.90;;;;;;4588626;19;19938;-37
2022/07/01 08:24:04;;;;;;;;;;;22.50;99.90;;;;;;4591346;19;20309;-35
2022/07/01 08:25:35;;;;;;;;;;;22.50;99.90;;;;;;4590593;19;19975;-41
2022/07/01 08:27:06;;;;;;;;;;;22.50;99.90;;;;;;4590378;19;19911;-35
2022/07/01 08:28:37;;;;;;;;;;;22.50;99.90;;;;;;4590191;19;19918;-40
2022/07/01 08:30:08;;;;;;;;;;;22.50;99.90;;;;;;4591541;19;19914;-34
2022/07/01 08:31:39;;;;;;;;;;;22.60;99.90;;;;;;4590897;19;19911;-40
2022/07/01 08:33:10;;;;;;;;;;;22.60;99.90;;;;;;4590579;19;19926;-42
2022/07/01 08:34:41;;;;;;;;;;;22.60;99.90;;;;;;4591887;19;19915;-36
2022/07/01 08:36:13;;;;;;;;;;;22.70;99.90;;;;;;4592970;19;19914;-41
2022/07/01 08:37:44;;;;;;;;;;;22.60;99.90;;;;;;4589224;19;19919;-35
2022/07/01 08:39:15;;;;;;;;;;;22.70;99.90;;;;;;4589219;19;19958;-34
2022/07/01 08:40:46;;;;;;;;;;;22.70;99.90;;;;;;4591202;19;19918;-37
2022/07/01 08:42:17;;;;;;;;;;;22.80;99.90;;;;;;4589491;19;19975;-40
2022/07/01 08:43:48;;;;;;;;;;;22.80;99.90;;;;;;4590402;19;19919;-39
2022/07/01 08:45:19;;;;;;;;;;;22.80;99.90;;;;;;4589175;19;19911;-40
2022/07/01 08:46:50;;;;;;;;;;;22.90;99.90;;;;;;4590168;19;19922;-38
2022/07/01 08:48:21;;;;;;;;;;;22.90;99.90;;;;;;4590209;19;19949;-42
2022/07/01 08:49:52;;;;;;;;;;;22.90;99.90;;;;;;4589103;19;19946;-35
2022/07/01 08:51:23;;;;;;;;;;;22.90;99.90;;;;;;4590160;19;19919;-34
2022/07/01 08:52:55;;;;;;;;;;;22.90;99.90;;;;;;4589204;19;19978;-40
2022/07/01 08:54:26;;;;;;;;;;;23.00;99.90;;;;;;4589720;19;19919;-35
2022/07/01 08:57:47;;;;;;;;;;;22.90;99.90;;;;;;4590650;19;19980;-37
2022/07/01 08:59:22;;;;;;;;;;;23.00;99.90;;;;;;4590687;19;20274;-36
2022/07/01 09:00:53;;;;;;;;;;;23.00;99.90;;;;;;4589874;19;19918;-35